Andromeda Spirit — 3ELH2 — position and weather

sailwx.info

Track history (hours):
 
Tides and Currents Weather Stations Pressure Air Temp Water Temp Dewpoint Dewpoint Depression Visibility Wind Speed Wind Dir Waves Ship Positions

Andromeda Spirit

Last reported at 2017-Nov-17 10:24 UTC. Time now 2017-Nov-19 12:42 UTC.
Position N 34°47' E 139°34'.

; draft 7.8 m.

Type: Cargo ship. MMSI: 372945000.

Date/timePositionNaut miles runAvg speedWind from/ knotsBaromVisibWave heightAir tempDewpointWater temp
2017-Nov-17 10:24N 34°47' E 139°34'716.3
2017-Nov-17 09:57N 34°54' E 139°37'716.2
2017-Nov-17 09:30N 35°01' E 139°41'815.3
2017-Nov-17 09:00N 35°08' E 139°44'612.6
2017-Nov-17 08:30N 35°14' E 139°46'612.9
2017-Nov-17 08:01N 35°20' E 139°43'612.9
2017-Nov-17 07:30N 35°26' E 139°42'1 2.7
2017-Nov-17 06:59N 35°27' E 139°41'0 0.0
2017-Nov-17 06:29N 35°27' E 139°41'0 0.0
2017-Nov-17 05:59N 35°27' E 139°41'0 0.0
2017-Nov-17 05:29N 35°27' E 139°41'0 0.0
2017-Nov-17 04:59N 35°27' E 139°41'0 0.0
2017-Nov-17 04:29N 35°27' E 139°41'0 0.0
2017-Nov-17 03:59N 35°27' E 139°41'0 0.0
2017-Nov-17 03:29N 35°27' E 139°41'0 0.0
2017-Nov-17 02:59N 35°27' E 139°41'0 0.0
2017-Nov-17 02:29N 35°27' E 139°41'0 0.0
2017-Nov-17 01:56N 35°27' E 139°41'0 0.0
2017-Nov-17 01:29N 35°27' E 139°41'0 0.0
2017-Nov-17 00:59N 35°27' E 139°41'0 0.0
2017-Nov-17 00:29N 35°27' E 139°41'0 0.0
2017-Nov-16 23:59N 35°27' E 139°41'0 0.0
2017-Nov-16 23:29N 35°27' E 139°41'0 0.0
2017-Nov-16 22:59N 35°27' E 139°41'0 0.0
2017-Nov-16 22:29N 35°27' E 139°41'0 0.0
2017-Nov-16 21:59N 35°27' E 139°41'0 0.0
2017-Nov-16 21:29N 35°27' E 139°41'0 0.0
2017-Nov-16 20:59N 35°27' E 139°41'0 0.0
2017-Nov-16 20:29N 35°27' E 139°41'0 0.0
2017-Nov-16 19:59N 35°27' E 139°41'0 0.0
2017-Nov-16 19:29N 35°27' E 139°41'0 0.0
2017-Nov-16 18:59N 35°27' E 139°41'0 0.0
2017-Nov-16 18:29N 35°27' E 139°41'0 0.0
2017-Nov-16 17:59N 35°27' E 139°41'0 0.0
2017-Nov-16 17:29N 35°27' E 139°41'0 0.0
2017-Nov-16 16:59N 35°27' E 139°41'0 0.0
2017-Nov-16 16:29N 35°27' E 139°41'0 0.0
2017-Nov-16 15:59N 35°27' E 139°41'0 0.0
2017-Nov-16 15:29N 35°27' E 139°41'0 0.0
2017-Nov-16 14:59N 35°27' E 139°41'0 0.0
2017-Nov-16 14:29N 35°27' E 139°41'0 0.0
2017-Nov-16 13:59N 35°27' E 139°41'0 0.0
2017-Nov-16 13:29N 35°27' E 139°41'0 0.0
2017-Nov-16 12:59N 35°27' E 139°41'0 0.0
2017-Nov-16 12:29N 35°27' E 139°41'0 0.0
2017-Nov-16 11:59N 35°27' E 139°41'0 0.0
2017-Nov-16 11:29N 35°27' E 139°41'0 0.0
2017-Nov-16 10:59N 35°27' E 139°41'0 0.0
2017-Nov-16 10:29N 35°27' E 139°41'0 0.0
2017-Nov-16 09:59N 35°27' E 139°41'0 0.0
2017-Nov-16 09:29N 35°27' E 139°41'0 0.0
2017-Nov-16 08:59N 35°27' E 139°41'0 0.0
2017-Nov-16 08:29N 35°27' E 139°41'0 0.0
2017-Nov-16 07:59N 35°27' E 139°41'0 0.0
2017-Nov-16 07:29N 35°27' E 139°41'0 0.0
2017-Nov-16 06:59N 35°27' E 139°41'0 0.0
2017-Nov-16 06:29N 35°27' E 139°41'0 0.0
2017-Nov-16 05:59N 35°27' E 139°41'0 0.0
2017-Nov-16 05:29N 35°27' E 139°41'0 0.2
2017-Nov-16 05:00N 35°27' E 139°41'2 3.9
2017-Nov-16 04:30N 35°26' E 139°43'4 7.6
2017-Nov-16 04:00N 35°22' E 139°43'611.3
2017-Nov-16 03:30N 35°17' E 139°46'612.1
2017-Nov-16 03:00N 35°11' E 139°47'4 7.9
2017-Nov-16 02:30N 35°07' E 139°46'2 3.8
2017-Nov-16 02:00N 35°05' E 139°45'3 5.8
2017-Nov-16 01:30N 35°02' E 139°44'510.2
2017-Nov-16 01:00N 34°58' E 139°41'5 9.6
2017-Nov-16 00:28N 34°53' E 139°43'510.3
2017-Nov-15 23:58N 34°49' E 139°47'  
Track history (hours):
 
Tides and Currents Weather Stations Pressure Air Temp Water Temp Dewpoint Dewpoint Depression Visibility Wind Speed Wind Dir Waves Ship Positions

Andromeda Spirit

Last reported at 2017-Nov-17 10:24 UTC. Time now 2017-Nov-19 12:42 UTC.
Position N 34°47' E 139°34'.

; draft 7.8 m.

Type: Cargo ship. MMSI: 372945000.

Date/timePositionNaut miles runAvg speedWind from/ knotsBaromVisibWave heightAir tempDewpointWater temp
2017-Nov-17 10:24N 34°47' E 139°34'716.3
2017-Nov-17 09:57N 34°54' E 139°37'716.2
2017-Nov-17 09:30N 35°01' E 139°41'815.3
2017-Nov-17 09:00N 35°08' E 139°44'612.6
2017-Nov-17 08:30N 35°14' E 139°46'612.9
2017-Nov-17 08:01N 35°20' E 139°43'612.9
2017-Nov-17 07:30N 35°26' E 139°42'1 2.7
2017-Nov-17 06:59N 35°27' E 139°41'0 0.0
2017-Nov-17 06:29N 35°27' E 139°41'0 0.0
2017-Nov-17 05:59N 35°27' E 139°41'0 0.0
2017-Nov-17 05:29N 35°27' E 139°41'0 0.0
2017-Nov-17 04:59N 35°27' E 139°41'0 0.0
2017-Nov-17 04:29N 35°27' E 139°41'0 0.0
2017-Nov-17 03:59N 35°27' E 139°41'0 0.0
2017-Nov-17 03:29N 35°27' E 139°41'0 0.0
2017-Nov-17 02:59N 35°27' E 139°41'0 0.0
2017-Nov-17 02:29N 35°27' E 139°41'0 0.0
2017-Nov-17 01:56N 35°27' E 139°41'0 0.0
2017-Nov-17 01:29N 35°27' E 139°41'0 0.0
2017-Nov-17 00:59N 35°27' E 139°41'0 0.0
2017-Nov-17 00:29N 35°27' E 139°41'0 0.0
2017-Nov-16 23:59N 35°27' E 139°41'0 0.0
2017-Nov-16 23:29N 35°27' E 139°41'0 0.0
2017-Nov-16 22:59N 35°27' E 139°41'0 0.0
2017-Nov-16 22:29N 35°27' E 139°41'0 0.0
2017-Nov-16 21:59N 35°27' E 139°41'0 0.0
2017-Nov-16 21:29N 35°27' E 139°41'0 0.0
2017-Nov-16 20:59N 35°27' E 139°41'0 0.0
2017-Nov-16 20:29N 35°27' E 139°41'0 0.0
2017-Nov-16 19:59N 35°27' E 139°41'0 0.0
2017-Nov-16 19:29N 35°27' E 139°41'0 0.0
2017-Nov-16 18:59N 35°27' E 139°41'0 0.0
2017-Nov-16 18:29N 35°27' E 139°41'0 0.0
2017-Nov-16 17:59N 35°27' E 139°41'0 0.0
2017-Nov-16 17:29N 35°27' E 139°41'0 0.0
2017-Nov-16 16:59N 35°27' E 139°41'0 0.0
2017-Nov-16 16:29N 35°27' E 139°41'0 0.0
2017-Nov-16 15:59N 35°27' E 139°41'0 0.0
2017-Nov-16 15:29N 35°27' E 139°41'0 0.0
2017-Nov-16 14:59N 35°27' E 139°41'0 0.0
2017-Nov-16 14:29N 35°27' E 139°41'0 0.0
2017-Nov-16 13:59N 35°27' E 139°41'0 0.0
2017-Nov-16 13:29N 35°27' E 139°41'0 0.0
2017-Nov-16 12:59N 35°27' E 139°41'0 0.0
2017-Nov-16 12:29N 35°27' E 139°41'0 0.0
2017-Nov-16 11:59N 35°27' E 139°41'0 0.0
2017-Nov-16 11:29N 35°27' E 139°41'0 0.0
2017-Nov-16 10:59N 35°27' E 139°41'0 0.0
2017-Nov-16 10:29N 35°27' E 139°41'0 0.0
2017-Nov-16 09:59N 35°27' E 139°41'0 0.0
2017-Nov-16 09:29N 35°27' E 139°41'0 0.0
2017-Nov-16 08:59N 35°27' E 139°41'0 0.0
2017-Nov-16 08:29N 35°27' E 139°41'0 0.0
2017-Nov-16 07:59N 35°27' E 139°41'0 0.0
2017-Nov-16 07:29N 35°27' E 139°41'0 0.0
2017-Nov-16 06:59N 35°27' E 139°41'0 0.0
2017-Nov-16 06:29N 35°27' E 139°41'0 0.0
2017-Nov-16 05:59N 35°27' E 139°41'0 0.0
2017-Nov-16 05:29N 35°27' E 139°41'0 0.2
2017-Nov-16 05:00N 35°27' E 139°41'2 3.9
2017-Nov-16 04:30N 35°26' E 139°43'4 7.6
2017-Nov-16 04:00N 35°22' E 139°43'611.3
2017-Nov-16 03:30N 35°17' E 139°46'612.1
2017-Nov-16 03:00N 35°11' E 139°47'4 7.9
2017-Nov-16 02:30N 35°07' E 139°46'2 3.8
2017-Nov-16 02:00N 35°05' E 139°45'3 5.8
2017-Nov-16 01:30N 35°02' E 139°44'510.2
2017-Nov-16 01:00N 34°58' E 139°41'5 9.6
2017-Nov-16 00:28N 34°53' E 139°43'510.3
2017-Nov-15 23:58N 34°49' E 139°47'  

Dump ship's entire track history